^^
Saratoga-Weather Station Historical Data
Daily Summary for June 17, 2021 Units:  Both    English   Metric
Daily Weekly Monthly Yearly Custom
  High: Low: Average:
Temperature: 63.9 °F /  17.7 °C 59.5 °F /  15.3 °C 62.2 °F /  16.8 °C
Dew Point: 59 °F /  15 °C 56.7 °F /  13.7 °C 58.1 °F /  14.5 °C
Humidity: 91% 84% 86%
Wind Speed: 5mph /  8km/h - 1mph /  1.6km/h
Wind Gust: 6mph /  9.7km/h - -
Wind- - SW
Pressure: 30.2 in /  1022.7 hPa 30.2 in /  1022.0 hPa -
Precipitation: 0 in /  0.0 mm    
Historical Graphs
 
 
Tabular Data for June 17, 2021
Time Temperature Dew Point Pressure Wind Wind Speed Wind Gust Humidity Rainfall Rate (Hourly) solar
00:03 63.9 °F /  17.7 °C 59 °F /  15 °C 30.2in /  1022.4hPa Calm   3mph /  4.8km/h 84% 0in /  0.0mm 0 W/m2
00:08 63.7 °F /  17.6 °C 58.8 °F /  14.9 °C 30.2in /  1022.4hPa NE 2mph /  3.2km/h 2mph /  3.2km/h 84% 0in /  0.0mm 0 W/m2
00:13 63.7 °F /  17.6 °C 58.8 °F /  14.9 °C 30.2in /  1022.4hPa Calm   3mph /  4.8km/h 84% 0in /  0.0mm 0 W/m2
00:19 63.7 °F /  17.6 °C 58.8 °F /  14.9 °C 30.2in /  1022.7hPa Calm   2mph /  3.2km/h 84% 0in /  0.0mm 0 W/m2
00:24 63.7 °F /  17.6 °C 58.8 °F /  14.9 °C 30.2in /  1022.7hPa NNW 2.9mph /  4.7km/h 4mph /  6.4km/h 84% 0in /  0.0mm 0 W/m2
00:29 63.7 °F /  17.6 °C 58.8 °F /  14.9 °C 30.2in /  1022.7hPa Calm   6mph /  9.7km/h 84% 0in /  0.0mm 0 W/m2
00:34 63.7 °F /  17.6 °C 58.8 °F /  14.9 °C 30.2in /  1022.7hPa NW 2mph /  3.2km/h 3mph /  4.8km/h 84% 0in /  0.0mm 0 W/m2
00:39 63.5 °F /  17.5 °C 58.6 °F /  14.8 °C 30.2in /  1022.7hPa Calm   6mph /  9.7km/h 84% 0in /  0.0mm 0 W/m2
00:44 63.5 °F /  17.5 °C 58.6 °F /  14.8 °C 30.2in /  1022.7hPa Calm   2mph /  3.2km/h 84% 0in /  0.0mm 0 W/m2
00:49 63.5 °F /  17.5 °C 58.6 °F /  14.8 °C 30.2in /  1022.7hPa Calm   4mph /  6.4km/h 84% 0in /  0.0mm 0 W/m2
00:54 63.5 °F /  17.5 °C 58.6 °F /  14.8 °C 30.2in /  1022.7hPa Calm   2mph /  3.2km/h 84% 0in /  0.0mm 0 W/m2
00:59 63.3 °F /  17.4 °C 58.8 °F /  14.9 °C 30.2in /  1022.7hPa WNW 2mph /  3.2km/h 6mph /  9.7km/h 85% 0in /  0.0mm 0 W/m2
01:04 63.3 °F /  17.4 °C 58.8 °F /  14.9 °C 30.2in /  1022.7hPa East 0.9mph /  1.4km/h 2mph /  3.2km/h 85% 0in /  0.0mm 0 W/m2
01:09 63.3 °F /  17.4 °C 58.8 °F /  14.9 °C 30.2in /  1022.4hPa NNW 0.9mph /  1.4km/h 5mph /  8km/h 85% 0in /  0.0mm 0 W/m2
01:14 63.3 °F /  17.4 °C 58.8 °F /  14.9 °C 30.2in /  1022.4hPa Calm   2mph /  3.2km/h 85% 0in /  0.0mm 0 W/m2
01:19 63.3 °F /  17.4 °C 58.8 °F /  14.9 °C 30.2in /  1022.4hPa NE 0.9mph /  1.4km/h 4mph /  6.4km/h 85% 0in /  0.0mm 0 W/m2
01:24 63.3 °F /  17.4 °C 58.8 °F /  14.9 °C 30.2in /  1022.4hPa WNW 4mph /  6.4km/h 5mph /  8km/h 85% 0in /  0.0mm 0 W/m2
01:29 63.1 °F /  17.3 °C 58.6 °F /  14.8 °C 30.2in /  1022.4hPa NNW 2mph /  3.2km/h 4mph /  6.4km/h 85% 0in /  0.0mm 0 W/m2
01:34 63.1 °F /  17.3 °C 58.6 °F /  14.8 °C 30.2in /  1022.7hPa NNW 5mph /  8km/h 5mph /  8km/h 85% 0in /  0.0mm 0 W/m2
01:39 63.1 °F /  17.3 °C 58.6 °F /  14.8 °C 30.2in /  1022.4hPa NNE 2mph /  3.2km/h 5mph /  8km/h 85% 0in /  0.0mm 0 W/m2
01:44 63.1 °F /  17.3 °C 58.6 °F /  14.8 °C 30.2in /  1022.4hPa North 0.9mph /  1.4km/h 4mph /  6.4km/h 85% 0in /  0.0mm 0 W/m2
01:49 63 °F /  17.2 °C 58.5 °F /  14.7 °C 30.2in /  1022.4hPa Calm   5mph /  8km/h 85% 0in /  0.0mm 0 W/m2
01:54 63 °F /  17.2 °C 58.5 °F /  14.7 °C 30.2in /  1022.4hPa ENE 0.9mph /  1.4km/h 2mph /  3.2km/h 85% 0in /  0.0mm 0 W/m2
01:59 63 °F /  17.2 °C 58.5 °F /  14.7 °C 30.2in /  1022.4hPa Calm   5mph /  8km/h 85% 0in /  0.0mm 0 W/m2
02:04 63 °F /  17.2 °C 58.6 °F /  14.8 °C 30.2in /  1022.4hPa Calm   4mph /  6.4km/h 86% 0in /  0.0mm 0 W/m2
02:09 62.8 °F /  17.1 °C 58.5 °F /  14.7 °C 30.2in /  1022.4hPa North 0.9mph /  1.4km/h 3mph /  4.8km/h 86% 0in /  0.0mm 0 W/m2
02:14 62.8 °F /  17.1 °C 58.5 °F /  14.7 °C 30.2in /  1022.4hPa ENE 0.9mph /  1.4km/h 3mph /  4.8km/h 86% 0in /  0.0mm 0 W/m2
02:19 62.8 °F /  17.1 °C 58.5 °F /  14.7 °C 30.2in /  1022.4hPa NNW 0.9mph /  1.4km/h 6mph /  9.7km/h 86% 0in /  0.0mm 0 W/m2
02:24 62.8 °F /  17.1 °C 58.5 °F /  14.7 °C 30.2in /  1022.4hPa NNW 2.9mph /  4.7km/h 5mph /  8km/h 86% 0in /  0.0mm 0 W/m2
02:29 62.8 °F /  17.1 °C 58.5 °F /  14.7 °C 30.2in /  1022.4hPa Calm   3mph /  4.8km/h 86% 0in /  0.0mm 0 W/m2
02:34 62.8 °F /  17.1 °C 58.5 °F /  14.7 °C 30.2in /  1022.7hPa Calm   2mph /  3.2km/h 86% 0in /  0.0mm 0 W/m2
02:39 62.6 °F /  17 °C 58.3 °F /  14.6 °C 30.2in /  1022.7hPa Calm   3mph /  4.8km/h 86% 0in /  0.0mm 0 W/m2
02:44 62.6 °F /  17 °C 58.3 °F /  14.6 °C 30.2in /  1022.7hPa Calm   2mph /  3.2km/h 86% 0in /  0.0mm 0 W/m2
02:49 62.6 °F /  17 °C 58.3 °F /  14.6 °C 30.2in /  1022.4hPa West 0.9mph /  1.4km/h 2mph /  3.2km/h 86% 0in /  0.0mm 0 W/m2
02:54 62.4 °F /  16.9 °C 58.1 °F /  14.5 °C 30.2in /  1022.4hPa SW 0.9mph /  1.4km/h 1mph /  1.6km/h 86% 0in /  0.0mm 0 W/m2
02:59 62.4 °F /  16.9 °C 58.1 °F /  14.5 °C 30.2in /  1022.4hPa West 2mph /  3.2km/h 5mph /  8km/h 86% 0in /  0.0mm 0 W/m2
03:04 62.2 °F /  16.8 °C 57.9 °F /  14.4 °C 30.2in /  1022.4hPa West 2mph /  3.2km/h 3mph /  4.8km/h 86% 0in /  0.0mm 0 W/m2
03:09 62.2 °F /  16.8 °C 57.9 °F /  14.4 °C 30.2in /  1022.4hPa West 0.9mph /  1.4km/h 5mph /  8km/h 86% 0in /  0.0mm 0 W/m2
03:14 62.2 °F /  16.8 °C 58.3 °F /  14.6 °C 30.2in /  1022.4hPa Calm   3mph /  4.8km/h 87% 0in /  0.0mm 0 W/m2
03:19 62.1 °F /  16.7 °C 58.1 °F /  14.5 °C 30.2in /  1022.4hPa West 2mph /  3.2km/h 4mph /  6.4km/h 87% 0in /  0.0mm 0 W/m2
03:24 62.1 °F /  16.7 °C 58.1 °F /  14.5 °C 30.2in /  1022.4hPa Calm   3mph /  4.8km/h 87% 0in /  0.0mm 0 W/m2
03:29 61.9 °F /  16.6 °C 57.9 °F /  14.4 °C 30.2in /  1022.4hPa Calm   1mph /  1.6km/h 87% 0in /  0.0mm 0 W/m2
03:34 61.9 °F /  16.6 °C 57.9 °F /  14.4 °C 30.2in /  1022.4hPa North 2.9mph /  4.7km/h 5mph /  8km/h 87% 0in /  0.0mm 0 W/m2
03:39 61.7 °F /  16.5 °C 57.7 °F /  14.3 °C 30.2in /  1022.4hPa WNW 4mph /  6.4km/h 5mph /  8km/h 87% 0in /  0.0mm 0 W/m2
03:44 61.5 °F /  16.4 °C 57.6 °F /  14.2 °C 30.2in /  1022.4hPa WNW 2mph /  3.2km/h 3mph /  4.8km/h 87% 0in /  0.0mm 0 W/m2
03:49 61.5 °F /  16.4 °C 57.6 °F /  14.2 °C 30.2in /  1022.4hPa NW 2mph /  3.2km/h 5mph /  8km/h 87% 0in /  0.0mm 0 W/m2
03:54 61.5 °F /  16.4 °C 57.6 °F /  14.2 °C 30.2in /  1022.4hPa NW 2mph /  3.2km/h 3mph /  4.8km/h 87% 0in /  0.0mm 0 W/m2
03:59 61.3 °F /  16.3 °C 57.7 °F /  14.3 °C 30.2in /  1022.4hPa Calm   4mph /  6.4km/h 88% 0in /  0.0mm 0 W/m2
04:04 61.3 °F /  16.3 °C 57.4 °F /  14.1 °C 30.2in /  1022.4hPa West 2mph /  3.2km/h 3mph /  4.8km/h 87% 0in /  0.0mm 0 W/m2
04:09 61.2 °F /  16.2 °C 57.6 °F /  14.2 °C 30.2in /  1022.4hPa WNW 2mph /  3.2km/h 6mph /  9.7km/h 88% 0in /  0.0mm 0 W/m2
04:14 61.2 °F /  16.2 °C 57.6 °F /  14.2 °C 30.2in /  1022.4hPa Calm   2mph /  3.2km/h 88% 0in /  0.0mm 0 W/m2
04:19 61 °F /  16.1 °C 57.4 °F /  14.1 °C 30.2in /  1022.4hPa Calm   3mph /  4.8km/h 88% 0in /  0.0mm 0 W/m2
04:24 60.8 °F /  16 °C 57.2 °F /  14 °C 30.2in /  1022.4hPa Calm   2mph /  3.2km/h 88% 0in /  0.0mm 0 W/m2
04:29 60.6 °F /  15.9 °C 57 °F /  13.9 °C 30.2in /  1022.4hPa Calm   3mph /  4.8km/h 88% 0in /  0.0mm 0 W/m2
04:34 60.4 °F /  15.8 °C 57.2 °F /  14 °C 30.2in /  1022.0hPa WNW 0.9mph /  1.4km/h 2mph /  3.2km/h 89% 0in /  0.0mm 0 W/m2
04:39 60.3 °F /  15.7 °C 57 °F /  13.9 °C 30.2in /  1022.0hPa Calm     89% 0in /  0.0mm 0 W/m2
04:44 60.1 °F /  15.6 °C 56.8 °F /  13.8 °C 30.2in /  1022.0hPa WNW 0.9mph /  1.4km/h 2mph /  3.2km/h 89% 0in /  0.0mm 0 W/m2
04:49 59.9 °F /  15.5 °C 57 °F /  13.9 °C 30.2in /  1022.0hPa Calm   1mph /  1.6km/h 90% 0in /  0.0mm 0 W/m2
04:54 59.7 °F /  15.4 °C 56.8 °F /  13.8 °C 30.2in /  1022.4hPa Calm   1mph /  1.6km/h 90% 0in /  0.0mm 0 W/m2
04:59 59.5 °F /  15.3 °C 56.7 °F /  13.7 °C 30.2in /  1022.0hPa West 0.9mph /  1.4km/h 1mph /  1.6km/h 90% 0in /  0.0mm 0 W/m2
05:04 59.5 °F /  15.3 °C 56.8 °F /  13.8 °C 30.2in /  1022.0hPa SW 0.9mph /  1.4km/h 2mph /  3.2km/h 91% 0in /  0.0mm 0 W/m2
05:09 59.5 °F /  15.3 °C 56.8 °F /  13.8 °C 30.2in /  1022.0hPa WNW 0.9mph /  1.4km/h 2mph /  3.2km/h 91% 0in /  0.0mm 0 W/m2
Juneau County Weather
Compliments of Weather Underground - 4 mb